createdAt,value
2018-06-04T00:00:41.377Z,3.90
2018-06-04T00:05:44.774Z,4.30
2018-06-04T00:10:48.278Z,4.07
2018-06-04T00:15:52.141Z,4.33
2018-06-04T00:20:55.576Z,3.90
2018-06-04T00:25:58.995Z,4.43
2018-06-04T00:31:02.449Z,4.07
2018-06-04T00:36:05.888Z,3.73
2018-06-04T00:41:09.314Z,4.40
2018-06-04T00:46:12.764Z,3.80
2018-06-04T00:51:16.216Z,4.07
2018-06-04T00:56:23.178Z,4.60
2018-06-04T01:01:26.638Z,4.40
2018-06-04T01:06:30.032Z,4.33
2018-06-04T01:11:33.449Z,3.93
2018-06-04T01:16:36.895Z,3.97
2018-06-04T01:21:40.341Z,4.03
2018-06-04T01:26:43.741Z,4.93
2018-06-04T01:31:47.174Z,4.10
2018-06-04T01:36:50.560Z,3.57
2018-06-04T01:41:53.953Z,3.93
2018-06-04T01:46:57.346Z,3.97
2018-06-04T01:52:00.758Z,4.73
2018-06-04T01:57:04.159Z,4.37
2018-06-04T02:02:07.612Z,4.23
2018-06-04T02:07:10.991Z,4.17
2018-06-04T02:12:14.364Z,4.23
2018-06-04T02:17:17.749Z,4.83
2018-06-04T02:22:21.124Z,4.93
2018-06-04T02:27:24.491Z,4.50
2018-06-04T02:32:27.893Z,4.37
2018-06-04T02:37:31.301Z,5.07
2018-06-04T02:42:34.641Z,4.00
2018-06-04T02:47:38.022Z,4.87
2018-06-04T02:52:41.405Z,4.47
2018-06-04T02:57:44.795Z,5.70
2018-06-04T03:02:48.157Z,5.00
2018-06-04T03:07:51.521Z,4.37
2018-06-04T03:12:54.870Z,4.10
2018-06-04T03:17:58.264Z,4.77
2018-06-04T03:23:01.664Z,4.83
2018-06-04T03:28:05.061Z,5.17
2018-06-04T03:33:08.532Z,5.27
2018-06-04T03:38:11.932Z,4.97
2018-06-04T03:43:15.369Z,4.97
2018-06-04T03:48:18.783Z,5.23
2018-06-04T03:53:22.210Z,4.93
2018-06-04T03:58:25.632Z,5.80
2018-06-04T04:03:29.027Z,4.90
2018-06-04T04:08:32.444Z,5.37
2018-06-04T04:13:35.532Z,4.70
2018-06-04T04:18:38.981Z,5.73
2018-06-04T04:23:43.653Z,5.27
2018-06-04T04:28:47.057Z,5.00
2018-06-04T04:33:50.458Z,5.93
2018-06-04T04:38:53.870Z,4.93
2018-06-04T04:43:57.250Z,5.20
2018-06-04T04:49:00.621Z,5.03
2018-06-04T04:54:03.997Z,5.37
2018-06-04T04:59:07.365Z,5.30
2018-06-04T05:04:10.729Z,5.20
2018-06-04T05:09:14.189Z,6.13
2018-06-04T05:14:17.629Z,5.77
2018-06-04T05:19:21.033Z,6.07
2018-06-04T05:24:24.434Z,6.30
2018-06-04T05:29:27.852Z,6.43
2018-06-04T05:34:31.249Z,7.03
2018-06-04T05:39:34.657Z,6.37
2018-06-04T05:44:38.127Z,6.83
2018-06-04T05:49:41.522Z,6.97
2018-06-04T05:54:44.904Z,7.07
2018-06-04T05:59:48.308Z,6.80
2018-06-04T06:04:51.729Z,6.77
2018-06-04T06:09:55.115Z,7.57
2018-06-04T06:14:58.514Z,6.87
2018-06-04T06:20:01.899Z,6.93
2018-06-04T06:25:05.365Z,7.57
2018-06-04T06:30:08.718Z,7.47
2018-06-04T06:35:12.145Z,7.50
2018-06-04T06:40:15.569Z,7.97
2018-06-04T06:45:18.947Z,6.73
2018-06-04T06:50:22.316Z,6.80
2018-06-04T06:55:25.704Z,7.03
2018-06-04T07:00:29.148Z,7.60
2018-06-04T07:05:32.532Z,7.37
2018-06-04T07:10:35.921Z,7.40
2018-06-04T07:15:39.289Z,7.57
2018-06-04T07:20:42.669Z,7.13
2018-06-04T07:25:46.093Z,7.43
2018-06-04T07:30:49.509Z,7.50
2018-06-04T07:35:52.928Z,7.63
2018-06-04T07:40:56.319Z,7.77
2018-06-04T07:45:59.740Z,6.33
2018-06-04T07:51:03.140Z,6.50
2018-06-04T07:56:06.557Z,7.53
2018-06-04T08:01:09.949Z,6.27
2018-06-04T08:06:13.409Z,6.77
2018-06-04T08:11:16.717Z,5.90
2018-06-04T08:16:20.108Z,5.90
2018-06-04T08:21:23.474Z,6.07
2018-06-04T08:26:26.829Z,6.37
2018-06-04T08:31:30.225Z,5.87
2018-06-04T08:36:33.614Z,5.70
2018-06-04T08:41:36.992Z,5.17
2018-06-04T08:46:40.417Z,5.73
2018-06-04T08:51:43.847Z,5.30
2018-06-04T08:56:47.328Z,5.30
2018-06-04T09:01:50.732Z,5.00
2018-06-04T09:06:54.132Z,5.97
2018-06-04T09:11:57.549Z,5.03
2018-06-04T09:17:00.967Z,6.03
2018-06-04T09:22:04.459Z,4.80
2018-06-04T09:27:07.981Z,4.60
2018-06-04T09:32:11.520Z,4.63
2018-06-04T09:37:14.993Z,5.00
2018-06-04T09:42:18.471Z,4.73
2018-06-04T09:47:21.989Z,4.13
2018-06-04T09:52:25.507Z,4.23
2018-06-04T09:57:28.982Z,4.03
2018-06-04T10:02:32.251Z,3.70
2018-06-04T10:07:35.742Z,4.20
2018-06-04T10:12:39.287Z,3.73
2018-06-04T10:17:42.768Z,4.08
2018-06-04T10:22:46.364Z,3.40
2018-06-04T10:27:49.991Z,3.53
2018-06-04T10:32:53.621Z,3.60
2018-06-04T10:37:57.232Z,3.95
2018-06-04T10:43:00.825Z,3.15
2018-06-04T10:48:04.618Z,3.33
2018-06-04T10:53:08.313Z,3.20
2018-06-04T10:58:11.858Z,2.83
2018-06-04T11:03:15.484Z,2.62
2018-06-04T11:08:19.301Z,3.00
2018-06-04T11:13:23.014Z,2.80
2018-06-04T11:18:26.702Z,2.95
2018-06-04T11:23:31.485Z,2.70
2018-06-04T11:28:35.296Z,3.00
2018-06-04T11:33:38.996Z,2.52
2018-06-04T11:38:46.126Z,2.47
2018-06-04T11:43:49.916Z,2.67
2018-06-04T11:48:53.604Z,2.58
2018-06-04T11:53:57.237Z,2.58
2018-06-04T11:59:00.896Z,2.47
2018-06-04T12:04:05.101Z,2.47
2018-06-04T12:09:10.783Z,2.62
2018-06-04T12:14:14.528Z,2.70
2018-06-04T12:19:18.269Z,2.85
2018-06-04T12:24:22.251Z,2.62
2018-06-04T12:29:26.041Z,2.80
2018-06-04T12:34:35.061Z,2.70
2018-06-04T12:39:41.294Z,2.70
2018-06-04T12:44:49.204Z,2.75
2018-06-04T12:49:55.881Z,2.65
2018-06-04T12:55:00.650Z,2.80
2018-06-04T13:00:06.797Z,2.50
2018-06-04T13:05:13.236Z,3.00
2018-06-04T13:10:16.971Z,3.02
2018-06-04T13:15:20.794Z,2.98
2018-06-04T13:20:24.532Z,3.02
2018-06-04T13:25:29.540Z,2.85
2018-06-04T13:30:33.406Z,3.22
2018-06-04T13:35:38.936Z,3.10
2018-06-04T13:40:43.297Z,3.08
2018-06-04T13:45:47.040Z,3.08
2018-06-04T13:50:51.441Z,2.87
2018-06-04T13:55:55.635Z,2.90
2018-06-04T14:01:05.351Z,2.60
2018-06-04T14:06:17.546Z,2.75
2018-06-04T14:11:32.345Z,2.52
2018-06-04T14:16:46.724Z,2.87
2018-06-04T14:22:02.558Z,3.05
2018-06-04T14:27:14.538Z,3.00
2018-06-04T14:32:31.792Z,2.95
2018-06-04T14:37:42.863Z,2.98
2018-06-04T14:42:52.792Z,2.75
2018-06-04T14:48:02.810Z,3.33
2018-06-04T14:53:15.227Z,3.12
2018-06-04T14:58:31.926Z,2.87
2018-06-04T15:03:42.501Z,3.25
2018-06-04T15:14:32.702Z,3.17
2018-06-04T15:19:41.953Z,3.22
2018-06-04T15:25:00.628Z,3.20
2018-06-04T15:30:13.544Z,3.40
2018-06-04T15:35:30.675Z,3.33
2018-06-04T15:40:43.472Z,3.05
2018-06-04T15:45:54.204Z,3.87
2018-06-04T15:51:04.258Z,3.92
2018-06-04T15:56:18.159Z,3.40
2018-06-04T16:06:46.509Z,3.10
2018-06-04T16:12:04.043Z,3.15
2018-06-04T16:17:13.828Z,3.22
2018-06-04T16:22:25.525Z,3.40
2018-06-04T16:27:38.095Z,3.30
2018-06-04T16:32:54.885Z,3.05
2018-06-04T16:38:03.090Z,3.72
2018-06-04T16:43:08.856Z,3.40
2018-06-04T16:48:18.485Z,3.72
2018-06-04T16:53:38.446Z,3.20
2018-06-04T16:58:46.668Z,3.70
2018-06-04T17:03:51.629Z,3.20
2018-06-04T17:14:16.618Z,3.27
2018-06-04T17:19:27.187Z,3.87
2018-06-04T17:24:37.975Z,3.83
2018-06-04T17:29:47.672Z,3.80
2018-06-04T17:34:56.408Z,3.95
2018-06-04T17:40:04.230Z,4.10
2018-06-04T17:45:10.383Z,3.75
2018-06-04T17:50:18.844Z,3.45
2018-06-04T17:55:25.796Z,3.52
2018-06-04T18:00:29.339Z,3.27
2018-06-04T18:05:34.928Z,3.17
2018-06-04T18:10:40.055Z,3.33
2018-06-04T18:15:45.669Z,3.17
2018-06-04T18:20:49.362Z,3.50
2018-06-04T18:25:55.508Z,3.40
2018-06-04T18:31:02.285Z,3.17
2018-06-04T18:36:13.854Z,3.70
2018-06-04T18:41:23.687Z,3.23
2018-06-04T18:46:33.221Z,2.97
2018-06-04T18:51:40.356Z,2.80
2018-06-04T19:02:13.084Z,2.67
2018-06-04T19:07:16.813Z,2.87
2018-06-04T19:12:20.593Z,2.70
2018-06-04T19:17:25.311Z,2.53
2018-06-04T19:22:29.104Z,2.97
2018-06-04T19:27:32.816Z,2.83
2018-06-04T19:32:36.573Z,3.00
2018-06-04T19:37:40.369Z,3.03
2018-06-04T19:42:44.056Z,2.90
2018-06-04T19:47:48.696Z,3.23
2018-06-04T19:52:53.292Z,3.00
2018-06-04T19:57:57.895Z,3.37
2018-06-04T20:03:01.578Z,3.30
2018-06-04T20:08:05.721Z,3.50
2018-06-04T20:13:10.445Z,3.10
2018-06-04T20:18:14.236Z,3.07
2018-06-04T20:23:17.925Z,3.27
2018-06-04T20:28:21.557Z,3.33
2018-06-04T20:33:25.277Z,4.17
2018-06-04T20:38:29.005Z,3.97
2018-06-04T20:43:32.767Z,3.80
2018-06-04T20:48:36.500Z,3.70
2018-06-04T20:53:40.350Z,3.73
2018-06-04T20:58:44.080Z,4.10
2018-06-04T21:03:47.705Z,3.83
2018-06-04T21:08:51.353Z,4.23
2018-06-04T21:13:54.992Z,4.20
2018-06-04T21:18:58.605Z,4.20
2018-06-04T21:24:02.196Z,4.60
2018-06-04T21:29:05.929Z,4.60
2018-06-04T21:34:09.621Z,4.77
2018-06-04T21:39:13.189Z,4.37
2018-06-04T21:44:16.819Z,4.67
2018-06-04T21:49:21.032Z,4.23
2018-06-04T21:54:24.151Z,4.23
2018-06-04T21:59:27.694Z,4.40
2018-06-04T22:04:31.279Z,4.53
2018-06-04T22:09:34.834Z,4.70
2018-06-04T22:14:38.413Z,4.33
2018-06-04T22:19:41.563Z,4.07
2018-06-04T22:24:45.060Z,4.33
2018-06-04T22:29:48.539Z,4.40
2018-06-04T22:34:52.014Z,4.70
2018-06-04T22:39:55.522Z,5.53
2018-06-04T22:44:59.168Z,5.13
2018-06-04T22:50:03.369Z,4.70
2018-06-04T22:55:06.938Z,4.00
2018-06-04T23:00:10.888Z,4.60
2018-06-04T23:05:14.054Z,4.57
2018-06-04T23:10:17.538Z,4.20
2018-06-04T23:15:21.817Z,4.53
2018-06-04T23:20:25.243Z,5.00
2018-06-04T23:25:28.728Z,4.20
2018-06-04T23:30:32.214Z,4.00
2018-06-04T23:35:35.750Z,3.73
2018-06-04T23:40:39.230Z,4.37
2018-06-04T23:45:42.816Z,5.40
2018-06-04T23:50:46.268Z,4.77
2018-06-04T23:55:49.398Z,4.80
